sensor_id;sensor_type;location;lat;lon;timestamp;P1;durP1;ratioP1;P2;durP2;ratioP2
60851;SDS011;48553;50.766;2.900;2024-03-02T00:01:57;1.38;;;0.57;;
60851;SDS011;48553;50.766;2.900;2024-03-02T00:04:58;1.23;;;0.47;;
60851;SDS011;48553;50.766;2.900;2024-03-02T00:07:58;2.35;;;0.52;;
60851;SDS011;48553;50.766;2.900;2024-03-02T00:11:01;1.73;;;0.52;;
60851;SDS011;48553;50.766;2.900;2024-03-02T00:17:05;1.00;;;0.50;;
60851;SDS011;48553;50.766;2.900;2024-03-02T00:20:20;3.25;;;0.50;;
60851;SDS011;48553;50.766;2.900;2024-03-02T00:23:22;1.83;;;0.50;;
60851;SDS011;48553;50.766;2.900;2024-03-02T00:26:24;3.22;;;0.70;;
60851;SDS011;48553;50.766;2.900;2024-03-02T00:29:24;1.90;;;0.70;;
60851;SDS011;48553;50.766;2.900;2024-03-02T00:32:25;1.70;;;0.68;;
60851;SDS011;48553;50.766;2.900;2024-03-02T00:35:28;2.72;;;0.90;;
60851;SDS011;48553;50.766;2.900;2024-03-02T00:38:29;3.70;;;0.98;;
60851;SDS011;48553;50.766;2.900;2024-03-02T00:41:31;3.83;;;1.00;;
60851;SDS011;48553;50.766;2.900;2024-03-02T00:44:32;2.55;;;0.90;;
60851;SDS011;48553;50.766;2.900;2024-03-02T00:47:39;3.72;;;0.95;;
60851;SDS011;48553;50.766;2.900;2024-03-02T00:50:39;3.10;;;1.05;;
60851;SDS011;48553;50.766;2.900;2024-03-02T00:53:40;2.60;;;0.88;;
60851;SDS011;48553;50.766;2.900;2024-03-02T00:56:41;3.22;;;0.70;;
60851;SDS011;48553;50.766;2.900;2024-03-02T00:59:42;2.67;;;0.80;;
60851;SDS011;48553;50.766;2.900;2024-03-02T01:02:42;2.17;;;0.70;;
60851;SDS011;48553;50.766;2.900;2024-03-02T01:05:44;2.28;;;0.63;;
60851;SDS011;48553;50.766;2.900;2024-03-02T01:08:45;2.85;;;0.88;;
60851;SDS011;48553;50.766;2.900;2024-03-02T01:11:47;3.80;;;1.00;;
60851;SDS011;48553;50.766;2.900;2024-03-02T01:14:47;2.10;;;0.75;;
60851;SDS011;48553;50.766;2.900;2024-03-02T01:17:48;2.10;;;0.80;;
60851;SDS011;48553;50.766;2.900;2024-03-02T01:20:48;2.17;;;0.80;;
60851;SDS011;48553;50.766;2.900;2024-03-02T01:23:51;1.60;;;0.73;;
60851;SDS011;48553;50.766;2.900;2024-03-02T01:26:52;2.90;;;1.13;;
60851;SDS011;48553;50.766;2.900;2024-03-02T01:29:52;3.90;;;1.00;;
60851;SDS011;48553;50.766;2.900;2024-03-02T01:32:54;2.72;;;1.00;;
60851;SDS011;48553;50.766;2.900;2024-03-02T01:35:54;2.45;;;0.75;;
60851;SDS011;48553;50.766;2.900;2024-03-02T01:38:55;2.70;;;0.80;;
60851;SDS011;48553;50.766;2.900;2024-03-02T01:41:55;1.85;;;0.80;;
60851;SDS011;48553;50.766;2.900;2024-03-02T01:44:56;3.42;;;1.10;;
60851;SDS011;48553;50.766;2.900;2024-03-02T01:47:56;2.88;;;1.13;;
60851;SDS011;48553;50.766;2.900;2024-03-02T01:50:57;3.35;;;0.90;;
60851;SDS011;48553;50.766;2.900;2024-03-02T01:53:57;4.03;;;1.17;;
60851;SDS011;48553;50.766;2.900;2024-03-02T01:56:58;2.13;;;1.08;;
60851;SDS011;48553;50.766;2.900;2024-03-02T01:59:59;3.13;;;1.08;;
60851;SDS011;48553;50.766;2.900;2024-03-02T02:03:00;4.75;;;1.23;;
60851;SDS011;48553;50.766;2.900;2024-03-02T02:06:00;5.78;;;1.30;;
60851;SDS011;48553;50.766;2.900;2024-03-02T02:09:00;5.07;;;1.10;;
60851;SDS011;48553;50.766;2.900;2024-03-02T02:12:01;2.90;;;1.10;;
60851;SDS011;48553;50.766;2.900;2024-03-02T02:18:26;5.35;;;1.27;;
60851;SDS011;48553;50.766;2.900;2024-03-02T02:21:27;3.00;;;0.90;;
60851;SDS011;48553;50.766;2.900;2024-03-02T02:24:28;2.05;;;0.85;;
60851;SDS011;48553;50.766;2.900;2024-03-02T02:27:28;2.65;;;1.20;;
60851;SDS011;48553;50.766;2.900;2024-03-02T02:30:30;2.45;;;0.80;;
60851;SDS011;48553;50.766;2.900;2024-03-02T02:33:31;3.45;;;0.85;;
60851;SDS011;48553;50.766;2.900;2024-03-02T02:36:32;2.67;;;1.13;;
60851;SDS011;48553;50.766;2.900;2024-03-02T02:39:34;2.30;;;0.90;;
60851;SDS011;48553;50.766;2.900;2024-03-02T02:42:35;4.07;;;1.25;;
60851;SDS011;48553;50.766;2.900;2024-03-02T02:45:35;5.72;;;1.23;;
60851;SDS011;48553;50.766;2.900;2024-03-02T02:48:35;4.32;;;1.45;;
60851;SDS011;48553;50.766;2.900;2024-03-02T02:51:36;4.72;;;1.15;;
60851;SDS011;48553;50.766;2.900;2024-03-02T02:54:37;5.18;;;1.70;;
60851;SDS011;48553;50.766;2.900;2024-03-02T02:57:41;3.83;;;1.25;;
60851;SDS011;48553;50.766;2.900;2024-03-02T03:00:42;4.00;;;1.13;;
60851;SDS011;48553;50.766;2.900;2024-03-02T03:03:43;4.10;;;1.40;;
60851;SDS011;48553;50.766;2.900;2024-03-02T03:06:44;3.90;;;1.70;;
60851;SDS011;48553;50.766;2.900;2024-03-02T03:09:44;6.63;;;2.00;;
60851;SDS011;48553;50.766;2.900;2024-03-02T03:12:45;3.80;;;1.77;;
60851;SDS011;48553;50.766;2.900;2024-03-02T03:15:45;4.22;;;1.92;;
60851;SDS011;48553;50.766;2.900;2024-03-02T03:18:45;4.53;;;1.90;;
60851;SDS011;48553;50.766;2.900;2024-03-02T03:21:46;5.72;;;2.30;;
60851;SDS011;48553;50.766;2.900;2024-03-02T03:24:46;4.93;;;2.20;;
60851;SDS011;48553;50.766;2.900;2024-03-02T03:27:47;4.75;;;2.20;;
60851;SDS011;48553;50.766;2.900;2024-03-02T03:30:47;6.07;;;2.47;;
60851;SDS011;48553;50.766;2.900;2024-03-02T03:33:48;6.32;;;2.67;;
60851;SDS011;48553;50.766;2.900;2024-03-02T03:36:48;8.48;;;2.50;;
60851;SDS011;48553;50.766;2.900;2024-03-02T03:39:48;3.75;;;2.13;;
60851;SDS011;48553;50.766;2.900;2024-03-02T03:42:49;5.80;;;2.08;;
60851;SDS011;48553;50.766;2.900;2024-03-02T03:45:50;8.05;;;2.35;;
60851;SDS011;48553;50.766;2.900;2024-03-02T03:48:51;5.32;;;2.22;;
60851;SDS011;48553;50.766;2.900;2024-03-02T03:51:51;4.95;;;2.25;;
60851;SDS011;48553;50.766;2.900;2024-03-02T03:54:52;9.27;;;2.33;;
60851;SDS011;48553;50.766;2.900;2024-03-02T03:57:52;6.53;;;1.90;;
60851;SDS011;48553;50.766;2.900;2024-03-02T04:00:53;6.00;;;1.88;;
60851;SDS011;48553;50.766;2.900;2024-03-02T04:03:53;4.50;;;1.63;;
60851;SDS011;48553;50.766;2.900;2024-03-02T04:06:54;4.05;;;1.55;;
60851;SDS011;48553;50.766;2.900;2024-03-02T04:09:54;4.10;;;1.85;;
60851;SDS011;48553;50.766;2.900;2024-03-02T04:12:55;3.55;;;1.60;;
60851;SDS011;48553;50.766;2.900;2024-03-02T04:15:55;4.38;;;1.55;;
60851;SDS011;48553;50.766;2.900;2024-03-02T04:18:56;6.15;;;1.60;;
60851;SDS011;48553;50.766;2.900;2024-03-02T04:21:56;8.85;;;1.40;;
60851;SDS011;48553;50.766;2.900;2024-03-02T04:24:57;3.70;;;1.30;;
60851;SDS011;48553;50.766;2.900;2024-03-02T04:27:57;3.42;;;1.20;;
60851;SDS011;48553;50.766;2.900;2024-03-02T04:30:58;2.85;;;0.90;;
60851;SDS011;48553;50.766;2.900;2024-03-02T04:33:58;5.85;;;1.23;;
60851;SDS011;48553;50.766;2.900;2024-03-02T04:36:59;4.53;;;1.20;;
60851;SDS011;48553;50.766;2.900;2024-03-02T04:39:59;5.43;;;1.50;;
60851;SDS011;48553;50.766;2.900;2024-03-02T04:42:59;4.18;;;1.00;;
60851;SDS011;48553;50.766;2.900;2024-03-02T04:46:00;3.30;;;1.20;;
60851;SDS011;48553;50.766;2.900;2024-03-02T04:49:01;3.03;;;1.10;;
60851;SDS011;48553;50.766;2.900;2024-03-02T04:52:01;5.28;;;0.98;;
60851;SDS011;48553;50.766;2.900;2024-03-02T04:55:02;4.85;;;1.13;;
60851;SDS011;48553;50.766;2.900;2024-03-02T04:58:09;3.65;;;1.10;;
60851;SDS011;48553;50.766;2.900;2024-03-02T05:01:10;3.85;;;1.02;;
60851;SDS011;48553;50.766;2.900;2024-03-02T05:04:10;3.20;;;1.17;;
60851;SDS011;48553;50.766;2.900;2024-03-02T05:07:11;4.82;;;1.35;;
60851;SDS011;48553;50.766;2.900;2024-03-02T05:10:12;3.60;;;1.10;;
60851;SDS011;48553;50.766;2.900;2024-03-02T05:13:12;6.03;;;1.30;;
60851;SDS011;48553;50.766;2.900;2024-03-02T05:16:13;3.72;;;1.00;;
60851;SDS011;48553;50.766;2.900;2024-03-02T05:19:13;4.97;;;1.15;;
60851;SDS011;48553;50.766;2.900;2024-03-02T05:22:14;5.80;;;1.23;;
60851;SDS011;48553;50.766;2.900;2024-03-02T05:25:14;2.38;;;0.98;;
60851;SDS011;48553;50.766;2.900;2024-03-02T05:28:15;4.15;;;1.48;;
60851;SDS011;48553;50.766;2.900;2024-03-02T05:31:15;4.63;;;1.15;;
60851;SDS011;48553;50.766;2.900;2024-03-02T05:34:16;6.78;;;1.30;;
60851;SDS011;48553;50.766;2.900;2024-03-02T05:37:17;9.55;;;1.70;;
60851;SDS011;48553;50.766;2.900;2024-03-02T05:40:18;3.65;;;1.05;;
60851;SDS011;48553;50.766;2.900;2024-03-02T05:43:18;5.43;;;1.05;;
60851;SDS011;48553;50.766;2.900;2024-03-02T05:46:20;3.53;;;1.23;;
60851;SDS011;48553;50.766;2.900;2024-03-02T05:49:20;4.25;;;1.50;;
60851;SDS011;48553;50.766;2.900;2024-03-02T05:52:20;2.78;;;0.98;;
60851;SDS011;48553;50.766;2.900;2024-03-02T05:55:21;6.45;;;1.55;;
60851;SDS011;48553;50.766;2.900;2024-03-02T05:58:22;3.53;;;1.02;;
60851;SDS011;48553;50.766;2.900;2024-03-02T06:01:44;7.18;;;1.17;;
60851;SDS011;48553;50.766;2.900;2024-03-02T06:07:46;8.10;;;1.40;;
60851;SDS011;48553;50.766;2.900;2024-03-02T06:10:47;2.63;;;1.00;;
60851;SDS011;48553;50.766;2.900;2024-03-02T06:13:47;3.15;;;1.20;;
60851;SDS011;48553;50.766;2.900;2024-03-02T06:16:48;6.28;;;1.10;;
60851;SDS011;48553;50.766;2.900;2024-03-02T06:19:48;3.97;;;1.20;;
60851;SDS011;48553;50.766;2.900;2024-03-02T06:22:48;4.82;;;1.02;;
60851;SDS011;48553;50.766;2.900;2024-03-02T06:25:49;3.35;;;1.10;;
60851;SDS011;48553;50.766;2.900;2024-03-02T06:28:49;4.18;;;1.10;;
60851;SDS011;48553;50.766;2.900;2024-03-02T06:31:50;8.23;;;1.35;;
60851;SDS011;48553;50.766;2.900;2024-03-02T06:34:51;3.47;;;0.93;;
60851;SDS011;48553;50.766;2.900;2024-03-02T06:37:51;3.92;;;0.90;;
60851;SDS011;48553;50.766;2.900;2024-03-02T06:40:52;3.35;;;1.00;;
60851;SDS011;48553;50.766;2.900;2024-03-02T06:43:52;5.63;;;1.10;;
60851;SDS011;48553;50.766;2.900;2024-03-02T06:46:59;5.53;;;1.08;;
60851;SDS011;48553;50.766;2.900;2024-03-02T06:49:59;2.20;;;0.82;;
60851;SDS011;48553;50.766;2.900;2024-03-02T06:53:00;8.45;;;1.00;;
60851;SDS011;48553;50.766;2.900;2024-03-02T06:56:00;4.80;;;1.30;;
60851;SDS011;48553;50.766;2.900;2024-03-02T06:59:01;4.40;;;0.90;;
60851;SDS011;48553;50.766;2.900;2024-03-02T07:02:01;3.55;;;0.98;;
60851;SDS011;48553;50.766;2.900;2024-03-02T07:05:02;4.25;;;0.85;;
60851;SDS011;48553;50.766;2.900;2024-03-02T07:08:03;2.85;;;0.93;;
60851;SDS011;48553;50.766;2.900;2024-03-02T07:11:05;5.07;;;1.05;;
60851;SDS011;48553;50.766;2.900;2024-03-02T07:14:05;5.68;;;1.10;;
60851;SDS011;48553;50.766;2.900;2024-03-02T07:17:06;6.45;;;1.27;;
60851;SDS011;48553;50.766;2.900;2024-03-02T07:20:06;6.57;;;1.02;;
60851;SDS011;48553;50.766;2.900;2024-03-02T07:23:07;9.13;;;1.30;;
60851;SDS011;48553;50.766;2.900;2024-03-02T07:26:08;5.05;;;1.13;;
60851;SDS011;48553;50.766;2.900;2024-03-02T07:29:09;5.30;;;1.02;;
60851;SDS011;48553;50.766;2.900;2024-03-02T07:32:09;3.80;;;1.02;;
60851;SDS011;48553;50.766;2.900;2024-03-02T07:35:11;5.53;;;0.95;;
60851;SDS011;48553;50.766;2.900;2024-03-02T07:38:12;9.02;;;1.02;;
60851;SDS011;48553;50.766;2.900;2024-03-02T07:41:12;6.80;;;1.00;;
60851;SDS011;48553;50.766;2.900;2024-03-02T07:44:13;6.47;;;1.05;;
60851;SDS011;48553;50.766;2.900;2024-03-02T07:47:14;6.88;;;1.08;;
60851;SDS011;48553;50.766;2.900;2024-03-02T07:50:15;5.43;;;1.02;;
60851;SDS011;48553;50.766;2.900;2024-03-02T07:53:15;4.82;;;1.23;;
60851;SDS011;48553;50.766;2.900;2024-03-02T07:56:16;8.07;;;1.20;;
60851;SDS011;48553;50.766;2.900;2024-03-02T07:59:22;5.80;;;1.10;;
60851;SDS011;48553;50.766;2.900;2024-03-02T08:02:22;4.30;;;1.05;;
60851;SDS011;48553;50.766;2.900;2024-03-02T08:05:23;5.85;;;1.30;;
60851;SDS011;48553;50.766;2.900;2024-03-02T08:08:23;4.53;;;0.93;;
60851;SDS011;48553;50.766;2.900;2024-03-02T08:11:24;7.15;;;1.05;;
60851;SDS011;48553;50.766;2.900;2024-03-02T08:14:24;5.30;;;1.02;;
60851;SDS011;48553;50.766;2.900;2024-03-02T08:17:24;6.20;;;0.98;;
60851;SDS011;48553;50.766;2.900;2024-03-02T08:20:25;5.07;;;0.85;;
60851;SDS011;48553;50.766;2.900;2024-03-02T08:23:26;4.35;;;0.90;;
60851;SDS011;48553;50.766;2.900;2024-03-02T08:26:26;7.75;;;1.00;;
60851;SDS011;48553;50.766;2.900;2024-03-02T08:29:29;6.50;;;1.20;;
60851;SDS011;48553;50.766;2.900;2024-03-02T08:32:30;6.45;;;1.10;;
60851;SDS011;48553;50.766;2.900;2024-03-02T08:35:30;7.43;;;0.93;;
60851;SDS011;48553;50.766;2.900;2024-03-02T08:38:35;8.25;;;1.30;;
60851;SDS011;48553;50.766;2.900;2024-03-02T08:41:36;9.15;;;1.25;;
60851;SDS011;48553;50.766;2.900;2024-03-02T08:44:36;3.35;;;1.15;;
60851;SDS011;48553;50.766;2.900;2024-03-02T08:47:37;6.22;;;1.40;;
60851;SDS011;48553;50.766;2.900;2024-03-02T08:50:37;6.97;;;1.10;;
60851;SDS011;48553;50.766;2.900;2024-03-02T08:53:37;6.15;;;1.10;;
60851;SDS011;48553;50.766;2.900;2024-03-02T08:56:38;7.18;;;0.98;;
60851;SDS011;48553;50.766;2.900;2024-03-02T08:59:38;6.00;;;1.10;;
60851;SDS011;48553;50.766;2.900;2024-03-02T09:02:39;8.88;;;1.35;;
60851;SDS011;48553;50.766;2.900;2024-03-02T09:05:39;6.80;;;1.02;;
60851;SDS011;48553;50.766;2.900;2024-03-02T09:08:40;8.23;;;1.00;;
60851;SDS011;48553;50.766;2.900;2024-03-02T09:11:40;3.55;;;0.82;;
60851;SDS011;48553;50.766;2.900;2024-03-02T09:14:41;4.80;;;0.95;;
60851;SDS011;48553;50.766;2.900;2024-03-02T09:17:41;13.80;;;1.20;;
60851;SDS011;48553;50.766;2.900;2024-03-02T09:20:42;5.28;;;1.10;;
60851;SDS011;48553;50.766;2.900;2024-03-02T09:23:42;6.80;;;1.10;;
60851;SDS011;48553;50.766;2.900;2024-03-02T09:26:44;8.60;;;1.00;;
60851;SDS011;48553;50.766;2.900;2024-03-02T09:29:45;7.07;;;1.40;;
60851;SDS011;48553;50.766;2.900;2024-03-02T09:32:45;7.38;;;1.33;;
60851;SDS011;48553;50.766;2.900;2024-03-02T09:35:46;7.32;;;1.08;;
60851;SDS011;48553;50.766;2.900;2024-03-02T09:38:46;6.55;;;1.10;;
60851;SDS011;48553;50.766;2.900;2024-03-02T09:41:47;9.45;;;1.25;;
60851;SDS011;48553;50.766;2.900;2024-03-02T09:44:48;6.65;;;1.10;;
60851;SDS011;48553;50.766;2.900;2024-03-02T09:47:49;4.93;;;1.10;;
60851;SDS011;48553;50.766;2.900;2024-03-02T09:50:49;5.18;;;1.13;;
60851;SDS011;48553;50.766;2.900;2024-03-02T09:53:50;5.75;;;0.93;;
60851;SDS011;48553;50.766;2.900;2024-03-02T09:56:50;7.50;;;1.13;;
60851;SDS011;48553;50.766;2.900;2024-03-02T09:59:51;5.38;;;1.30;;
60851;SDS011;48553;50.766;2.900;2024-03-02T10:02:52;9.15;;;1.35;;
60851;SDS011;48553;50.766;2.900;2024-03-02T10:05:52;7.28;;;1.00;;
60851;SDS011;48553;50.766;2.900;2024-03-02T10:08:53;6.55;;;1.10;;
60851;SDS011;48553;50.766;2.900;2024-03-02T10:12:03;5.00;;;1.08;;
60851;SDS011;48553;50.766;2.900;2024-03-02T10:15:04;4.63;;;1.27;;
60851;SDS011;48553;50.766;2.900;2024-03-02T10:18:08;6.00;;;1.30;;
60851;SDS011;48553;50.766;2.900;2024-03-02T10:21:14;6.80;;;1.30;;
60851;SDS011;48553;50.766;2.900;2024-03-02T10:24:15;5.18;;;1.30;;
60851;SDS011;48553;50.766;2.900;2024-03-02T10:27:17;5.43;;;1.30;;
60851;SDS011;48553;50.766;2.900;2024-03-02T10:30:22;6.43;;;1.10;;
60851;SDS011;48553;50.766;2.900;2024-03-02T10:33:22;6.10;;;1.15;;
60851;SDS011;48553;50.766;2.900;2024-03-02T10:36:24;7.68;;;1.10;;
60851;SDS011;48553;50.766;2.900;2024-03-02T10:39:25;5.88;;;1.20;;
60851;SDS011;48553;50.766;2.900;2024-03-02T10:42:26;5.97;;;1.05;;
60851;SDS011;48553;50.766;2.900;2024-03-02T10:45:27;4.18;;;0.82;;
60851;SDS011;48553;50.766;2.900;2024-03-02T10:48:28;9.77;;;1.45;;
60851;SDS011;48553;50.766;2.900;2024-03-02T10:51:31;5.65;;;1.08;;
60851;SDS011;48553;50.766;2.900;2024-03-02T10:54:36;7.10;;;1.17;;
60851;SDS011;48553;50.766;2.900;2024-03-02T10:57:45;7.20;;;1.10;;
60851;SDS011;48553;50.766;2.900;2024-03-02T11:00:50;7.45;;;1.30;;
60851;SDS011;48553;50.766;2.900;2024-03-02T11:03:51;8.85;;;1.45;;
60851;SDS011;48553;50.766;2.900;2024-03-02T11:06:58;8.02;;;1.30;;
60851;SDS011;48553;50.766;2.900;2024-03-02T11:10:01;5.90;;;1.10;;
60851;SDS011;48553;50.766;2.900;2024-03-02T11:13:09;6.57;;;1.40;;
60851;SDS011;48553;50.766;2.900;2024-03-02T11:16:44;3.28;;;0.90;;
60851;SDS011;48553;50.766;2.900;2024-03-02T11:19:39;4.80;;;1.17;;
60851;SDS011;48553;50.766;2.900;2024-03-02T11:22:40;5.45;;;1.10;;
60851;SDS011;48553;50.766;2.900;2024-03-02T11:25:41;5.80;;;1.02;;
60851;SDS011;48553;50.766;2.900;2024-03-02T11:28:42;5.68;;;1.02;;
60851;SDS011;48553;50.766;2.900;2024-03-02T11:31:58;3.65;;;1.20;;
60851;SDS011;48553;50.766;2.900;2024-03-02T11:35:01;4.55;;;1.10;;
60851;SDS011;48553;50.766;2.900;2024-03-02T11:38:02;5.47;;;1.38;;
60851;SDS011;48553;50.766;2.900;2024-03-02T11:41:06;4.10;;;0.90;;
60851;SDS011;48553;50.766;2.900;2024-03-02T11:44:08;4.28;;;0.88;;
60851;SDS011;48553;50.766;2.900;2024-03-02T11:47:12;5.80;;;0.90;;
60851;SDS011;48553;50.766;2.900;2024-03-02T11:50:15;6.60;;;0.85;;
60851;SDS011;48553;50.766;2.900;2024-03-02T11:53:15;4.22;;;1.02;;
60851;SDS011;48553;50.766;2.900;2024-03-02T11:56:17;3.90;;;0.98;;
60851;SDS011;48553;50.766;2.900;2024-03-02T11:59:19;4.38;;;1.00;;
60851;SDS011;48553;50.766;2.900;2024-03-02T12:02:21;5.25;;;0.98;;
60851;SDS011;48553;50.766;2.900;2024-03-02T12:05:22;3.95;;;0.88;;
60851;SDS011;48553;50.766;2.900;2024-03-02T12:08:22;3.10;;;1.00;;
60851;SDS011;48553;50.766;2.900;2024-03-02T12:11:23;3.70;;;1.05;;
60851;SDS011;48553;50.766;2.900;2024-03-02T12:14:24;4.35;;;1.10;;
60851;SDS011;48553;50.766;2.900;2024-03-02T12:17:24;3.55;;;0.90;;
60851;SDS011;48553;50.766;2.900;2024-03-02T12:20:26;5.18;;;1.10;;
60851;SDS011;48553;50.766;2.900;2024-03-02T12:23:29;4.00;;;0.80;;
60851;SDS011;48553;50.766;2.900;2024-03-02T12:26:29;3.78;;;0.90;;
60851;SDS011;48553;50.766;2.900;2024-03-02T12:29:30;3.75;;;1.13;;
60851;SDS011;48553;50.766;2.900;2024-03-02T12:32:30;7.15;;;1.10;;
60851;SDS011;48553;50.766;2.900;2024-03-02T12:35:31;5.95;;;0.90;;
60851;SDS011;48553;50.766;2.900;2024-03-02T12:38:32;3.78;;;1.00;;
60851;SDS011;48553;50.766;2.900;2024-03-02T12:41:32;3.30;;;1.08;;
60851;SDS011;48553;50.766;2.900;2024-03-02T12:44:36;4.13;;;1.10;;
60851;SDS011;48553;50.766;2.900;2024-03-02T12:47:36;4.95;;;1.20;;
60851;SDS011;48553;50.766;2.900;2024-03-02T12:50:37;2.90;;;0.82;;
60851;SDS011;48553;50.766;2.900;2024-03-02T12:53:38;2.63;;;0.85;;
60851;SDS011;48553;50.766;2.900;2024-03-02T12:56:38;2.38;;;0.80;;
60851;SDS011;48553;50.766;2.900;2024-03-02T12:59:40;2.97;;;0.85;;
60851;SDS011;48553;50.766;2.900;2024-03-02T13:02:46;2.90;;;0.90;;
60851;SDS011;48553;50.766;2.900;2024-03-02T13:05:48;3.50;;;0.70;;
60851;SDS011;48553;50.766;2.900;2024-03-02T13:08:50;3.42;;;0.75;;
60851;SDS011;48553;50.766;2.900;2024-03-02T13:11:50;5.07;;;1.00;;
60851;SDS011;48553;50.766;2.900;2024-03-02T13:14:51;4.32;;;0.95;;
60851;SDS011;48553;50.766;2.900;2024-03-02T13:17:52;2.72;;;0.90;;
60851;SDS011;48553;50.766;2.900;2024-03-02T13:20:52;4.50;;;1.20;;
60851;SDS011;48553;50.766;2.900;2024-03-02T13:23:52;3.42;;;1.00;;
60851;SDS011;48553;50.766;2.900;2024-03-02T13:26:53;3.75;;;1.08;;
60851;SDS011;48553;50.766;2.900;2024-03-02T13:29:57;3.30;;;1.08;;
60851;SDS011;48553;50.766;2.900;2024-03-02T13:32:58;5.88;;;1.30;;
60851;SDS011;48553;50.766;2.900;2024-03-02T13:35:59;4.97;;;1.02;;
60851;SDS011;48553;50.766;2.900;2024-03-02T13:38:59;3.08;;;1.08;;
60851;SDS011;48553;50.766;2.900;2024-03-02T13:42:00;3.10;;;1.08;;
60851;SDS011;48553;50.766;2.900;2024-03-02T13:45:08;3.60;;;1.10;;
60851;SDS011;48553;50.766;2.900;2024-03-02T13:48:08;3.53;;;1.10;;
60851;SDS011;48553;50.766;2.900;2024-03-02T13:51:09;3.38;;;1.00;;
60851;SDS011;48553;50.766;2.900;2024-03-02T13:54:09;4.85;;;1.00;;
60851;SDS011;48553;50.766;2.900;2024-03-02T13:57:10;2.45;;;1.00;;
60851;SDS011;48553;50.766;2.900;2024-03-02T14:00:12;2.10;;;0.93;;
60851;SDS011;48553;50.766;2.900;2024-03-02T14:03:13;2.50;;;0.93;;
60851;SDS011;48553;50.766;2.900;2024-03-02T14:06:13;3.67;;;0.90;;
60851;SDS011;48553;50.766;2.900;2024-03-02T14:09:13;3.85;;;1.08;;
60851;SDS011;48553;50.766;2.900;2024-03-02T14:12:14;2.28;;;0.88;;
60851;SDS011;48553;50.766;2.900;2024-03-02T14:15:15;5.32;;;1.30;;
60851;SDS011;48553;50.766;2.900;2024-03-02T14:18:15;3.42;;;1.10;;
60851;SDS011;48553;50.766;2.900;2024-03-02T14:21:16;2.42;;;1.00;;
60851;SDS011;48553;50.766;2.900;2024-03-02T14:24:16;2.60;;;1.10;;
60851;SDS011;48553;50.766;2.900;2024-03-02T14:27:17;3.85;;;1.05;;
60851;SDS011;48553;50.766;2.900;2024-03-02T14:30:17;3.10;;;1.10;;
60851;SDS011;48553;50.766;2.900;2024-03-02T14:33:18;4.25;;;1.30;;
60851;SDS011;48553;50.766;2.900;2024-03-02T14:36:18;3.92;;;1.45;;
60851;SDS011;48553;50.766;2.900;2024-03-02T14:39:19;4.10;;;1.30;;
60851;SDS011;48553;50.766;2.900;2024-03-02T14:42:19;3.20;;;1.55;;
60851;SDS011;48553;50.766;2.900;2024-03-02T14:45:20;4.10;;;1.35;;
60851;SDS011;48553;50.766;2.900;2024-03-02T14:48:20;3.47;;;1.15;;
60851;SDS011;48553;50.766;2.900;2024-03-02T14:51:21;3.10;;;1.25;;
60851;SDS011;48553;50.766;2.900;2024-03-02T14:54:22;3.05;;;1.20;;
60851;SDS011;48553;50.766;2.900;2024-03-02T14:57:24;2.67;;;1.02;;
60851;SDS011;48553;50.766;2.900;2024-03-02T15:00:25;2.92;;;1.10;;
60851;SDS011;48553;50.766;2.900;2024-03-02T15:03:25;3.05;;;1.17;;
60851;SDS011;48553;50.766;2.900;2024-03-02T15:06:26;3.25;;;1.23;;
60851;SDS011;48553;50.766;2.900;2024-03-02T15:09:26;3.78;;;1.08;;
60851;SDS011;48553;50.766;2.900;2024-03-02T15:12:26;4.57;;;1.10;;
60851;SDS011;48553;50.766;2.900;2024-03-02T15:15:27;4.43;;;1.27;;
60851;SDS011;48553;50.766;2.900;2024-03-02T15:18:28;3.00;;;1.10;;
60851;SDS011;48553;50.766;2.900;2024-03-02T15:21:33;2.45;;;1.10;;
60851;SDS011;48553;50.766;2.900;2024-03-02T15:24:33;4.38;;;1.20;;
60851;SDS011;48553;50.766;2.900;2024-03-02T15:27:34;3.72;;;1.30;;
60851;SDS011;48553;50.766;2.900;2024-03-02T15:30:34;4.47;;;1.23;;
60851;SDS011;48553;50.766;2.900;2024-03-02T15:33:35;4.35;;;1.33;;
60851;SDS011;48553;50.766;2.900;2024-03-02T15:36:35;3.72;;;1.23;;
60851;SDS011;48553;50.766;2.900;2024-03-02T15:39:35;2.67;;;1.27;;
60851;SDS011;48553;50.766;2.900;2024-03-02T15:42:36;2.20;;;1.13;;
60851;SDS011;48553;50.766;2.900;2024-03-02T15:45:36;1.63;;;1.00;;
60851;SDS011;48553;50.766;2.900;2024-03-02T15:48:37;3.85;;;1.00;;
60851;SDS011;48553;50.766;2.900;2024-03-02T15:51:37;2.83;;;1.10;;
60851;SDS011;48553;50.766;2.900;2024-03-02T15:54:40;3.38;;;1.00;;
60851;SDS011;48553;50.766;2.900;2024-03-02T15:57:41;3.47;;;1.00;;
60851;SDS011;48553;50.766;2.900;2024-03-02T16:00:41;2.40;;;0.90;;
60851;SDS011;48553;50.766;2.900;2024-03-02T16:03:41;2.28;;;0.88;;
60851;SDS011;48553;50.766;2.900;2024-03-02T16:06:42;4.03;;;0.85;;
60851;SDS011;48553;50.766;2.900;2024-03-02T16:09:42;2.80;;;0.73;;
60851;SDS011;48553;50.766;2.900;2024-03-02T16:12:43;1.92;;;0.70;;
60851;SDS011;48553;50.766;2.900;2024-03-02T16:15:43;2.10;;;0.70;;
60851;SDS011;48553;50.766;2.900;2024-03-02T16:18:44;2.78;;;0.80;;
60851;SDS011;48553;50.766;2.900;2024-03-02T16:21:44;1.90;;;0.60;;
60851;SDS011;48553;50.766;2.900;2024-03-02T16:24:44;3.13;;;0.90;;
60851;SDS011;48553;50.766;2.900;2024-03-02T16:27:45;2.05;;;0.90;;
60851;SDS011;48553;50.766;2.900;2024-03-02T16:30:46;2.33;;;0.80;;
60851;SDS011;48553;50.766;2.900;2024-03-02T16:33:47;2.58;;;0.90;;
60851;SDS011;48553;50.766;2.900;2024-03-02T16:36:50;2.88;;;0.75;;
60851;SDS011;48553;50.766;2.900;2024-03-02T16:39:50;3.20;;;0.90;;
60851;SDS011;48553;50.766;2.900;2024-03-02T16:42:52;5.18;;;1.25;;
60851;SDS011;48553;50.766;2.900;2024-03-02T16:45:53;2.83;;;1.00;;
60851;SDS011;48553;50.766;2.900;2024-03-02T16:48:53;2.72;;;1.15;;
60851;SDS011;48553;50.766;2.900;2024-03-02T16:51:54;3.17;;;1.10;;
60851;SDS011;48553;50.766;2.900;2024-03-02T16:54:55;2.20;;;1.08;;
60851;SDS011;48553;50.766;2.900;2024-03-02T16:57:55;2.65;;;1.15;;
60851;SDS011;48553;50.766;2.900;2024-03-02T17:00:55;3.50;;;1.40;;
60851;SDS011;48553;50.766;2.900;2024-03-02T17:03:56;3.15;;;1.52;;
60851;SDS011;48553;50.766;2.900;2024-03-02T17:06:56;5.75;;;1.70;;
60851;SDS011;48553;50.766;2.900;2024-03-02T17:09:57;4.75;;;1.75;;
60851;SDS011;48553;50.766;2.900;2024-03-02T17:12:59;4.47;;;1.67;;
60851;SDS011;48553;50.766;2.900;2024-03-02T17:15:59;3.83;;;1.80;;
60851;SDS011;48553;50.766;2.900;2024-03-02T17:19:00;4.97;;;1.83;;
60851;SDS011;48553;50.766;2.900;2024-03-02T17:22:00;4.57;;;2.08;;
60851;SDS011;48553;50.766;2.900;2024-03-02T17:25:01;3.83;;;1.95;;
60851;SDS011;48553;50.766;2.900;2024-03-02T17:28:18;3.85;;;1.90;;
60851;SDS011;48553;50.766;2.900;2024-03-02T17:31:28;4.65;;;2.13;;
60851;SDS011;48553;50.766;2.900;2024-03-02T17:34:31;5.70;;;2.00;;
60851;SDS011;48553;50.766;2.900;2024-03-02T17:37:32;3.97;;;2.10;;
60851;SDS011;48553;50.766;2.900;2024-03-02T17:40:34;6.88;;;2.45;;
60851;SDS011;48553;50.766;2.900;2024-03-02T17:43:34;4.68;;;2.20;;
60851;SDS011;48553;50.766;2.900;2024-03-02T17:46:35;5.55;;;2.53;;
60851;SDS011;48553;50.766;2.900;2024-03-02T17:49:35;4.78;;;2.20;;
60851;SDS011;48553;50.766;2.900;2024-03-02T17:52:36;5.15;;;2.72;;
60851;SDS011;48553;50.766;2.900;2024-03-02T17:55:36;5.85;;;2.47;;
60851;SDS011;48553;50.766;2.900;2024-03-02T17:58:37;4.95;;;2.70;;
60851;SDS011;48553;50.766;2.900;2024-03-02T18:01:38;5.05;;;2.58;;
60851;SDS011;48553;50.766;2.900;2024-03-02T18:04:38;3.75;;;2.17;;
60851;SDS011;48553;50.766;2.900;2024-03-02T18:07:41;6.68;;;2.47;;
60851;SDS011;48553;50.766;2.900;2024-03-02T18:10:42;6.30;;;2.58;;
60851;SDS011;48553;50.766;2.900;2024-03-02T18:13:42;4.45;;;2.20;;
60851;SDS011;48553;50.766;2.900;2024-03-02T18:16:42;3.42;;;2.20;;
60851;SDS011;48553;50.766;2.900;2024-03-02T18:19:43;4.43;;;2.20;;
60851;SDS011;48553;50.766;2.900;2024-03-02T18:22:43;4.80;;;2.35;;